DLH343 OLBA-ORBI
Flight info
| Callsign | DLH343 |
|---|---|
| Flight time | 1h 7m |
| Altitude | 27000 |
| Route | CAK DCT LEBOR R655 KTN/N0462F390 DCT TAN G202 RAPLU DCT SIGBI L200 SILBO DCT SEBIE DCT GEBSE |
| Aircraft | A343/H-SDE2E3FGHIJ4J5M1RWXY/LB1D1 |
Departure
| Time | 2026-05-04 19:25 |
|---|---|
| Airport | Beirut Rafic Hariri International Airport (OLBA) |
Arrival
| Time | 2026-05-04 20:32 |
|---|---|
| Airport | Baghdad International Airport / New Al Muthana Air Base (ORBI) |
| Time | Latitude | Longitude | Altitude | Speed | Heading |
|---|---|---|---|---|---|
| 2026-05-04 19:00 | 33.82159 | 35.49106 | 100 ft | 0 kts | 155° |
| 2026-05-04 19:12 | 33.82158 | 35.49106 | 100 ft | 0 kts | 155° |
| 2026-05-04 19:13 | 33.82158 | 35.49107 | 100 ft | 0 kts | 155° |
| 2026-05-04 19:14 | 33.82157 | 35.49107 | 100 ft | 0 kts | 155° |
| 2026-05-04 19:17 | 33.82162 | 35.49105 | 100 ft | 2 kts | 155° |
| 2026-05-04 19:17 | 33.82177 | 35.49096 | 100 ft | 3 kts | 155° |
| 2026-05-04 19:17 | 33.82184 | 35.49092 | 100 ft | 3 kts | 155° |
| 2026-05-04 19:18 | 33.82191 | 35.49088 | 100 ft | 3 kts | 155° |
| 2026-05-04 19:18 | 33.82205 | 35.49080 | 100 ft | 3 kts | 155° |
| 2026-05-04 19:18 | 33.82222 | 35.49069 | 100 ft | 3 kts | 140° |
| 2026-05-04 19:18 | 33.82235 | 35.49050 | 100 ft | 3 kts | 115° |
| 2026-05-04 19:19 | 33.82238 | 35.49042 | 100 ft | 1 kts | 105° |
| 2026-05-04 19:19 | 33.82235 | 35.49056 | 100 ft | 1 kts | 101° |
| 2026-05-04 19:19 | 33.82235 | 35.49065 | 100 ft | 1 kts | 95° |
| 2026-05-04 19:19 | 33.82234 | 35.49069 | 100 ft | 1 kts | 98° |
| 2026-05-04 19:20 | 33.82228 | 35.49109 | 100 ft | 12 kts | 102° |
| 2026-05-04 19:20 | 33.82205 | 35.49217 | 100 ft | 15 kts | 104° |
| 2026-05-04 19:20 | 33.82174 | 35.49349 | 100 ft | 18 kts | 108° |
| 2026-05-04 19:20 | 33.82122 | 35.49485 | 100 ft | 13 kts | 117° |
| 2026-05-04 19:21 | 33.82119 | 35.49530 | 100 ft | 2 kts | 73° |
| 2026-05-04 19:21 | 33.82131 | 35.49551 | 100 ft | 6 kts | 53° |
| 2026-05-04 19:21 | 33.82176 | 35.49593 | 100 ft | 11 kts | 36° |
| 2026-05-04 19:21 | 33.82253 | 35.49660 | 100 ft | 17 kts | 36° |
| 2026-05-04 19:22 | 33.82363 | 35.49756 | 100 ft | 22 kts | 36° |
| 2026-05-04 19:22 | 33.82505 | 35.49873 | 100 ft | 27 kts | 34° |
| 2026-05-04 19:22 | 33.82669 | 35.50012 | 100 ft | 29 kts | 35° |
| 2026-05-04 19:22 | 33.82764 | 35.50089 | 100 ft | 7 kts | 40° |
| 2026-05-04 19:23 | 33.82769 | 35.50126 | 100 ft | 5 kts | 101° |
| 2026-05-04 19:23 | 33.82752 | 35.50158 | 100 ft | 0 kts | 124° |
| 2026-05-04 19:23 | 33.82747 | 35.50167 | 100 ft | 3 kts | 124° |
| 2026-05-04 19:23 | 33.82732 | 35.50194 | 100 ft | 6 kts | 124° |
| 2026-05-04 19:24 | 33.82703 | 35.50245 | 100 ft | 8 kts | 126° |
| 2026-05-04 19:24 | 33.82663 | 35.50271 | 100 ft | 6 kts | 181° |
| 2026-05-04 19:24 | 33.82642 | 35.50259 | 100 ft | 0 kts | 213° |
| 2026-05-04 19:24 | 33.82495 | 35.50143 | 100 ft | 71 kts | 213° |
| 2026-05-04 19:25 | 33.81788 | 35.49592 | 192 ft | 164 kts | 212° |
| 2026-05-04 19:25 | 33.80694 | 35.48741 | 1004 ft | 204 kts | 213° |
| 2026-05-04 19:25 | 33.79564 | 35.47586 | 1920 ft | 230 kts | 233° |
| 2026-05-04 19:25 | 33.79060 | 35.45612 | 2697 ft | 276 kts | 268° |
| 2026-05-04 19:26 | 33.79637 | 35.43187 | 3578 ft | 335 kts | 301° |
| 2026-05-04 19:26 | 33.81414 | 35.41476 | 6083 ft | 296 kts | 343° |
| 2026-05-04 19:26 | 33.83438 | 35.41339 | 9599 ft | 291 kts | 6° |
| 2026-05-04 19:26 | 33.85124 | 35.42331 | 12464 ft | 245 kts | 35° |
| 2026-05-04 19:27 | 33.86123 | 35.43524 | 15356 ft | 170 kts | 41° |
| 2026-05-04 19:27 | 33.86857 | 35.44481 | 16654 ft | 157 kts | 40° |
| 2026-05-04 19:27 | 33.87759 | 35.45583 | 16616 ft | 215 kts | 40° |
| 2026-05-04 19:27 | 33.88908 | 35.46954 | 17028 ft | 245 kts | 40° |
| 2026-05-04 19:28 | 33.90144 | 35.48422 | 17859 ft | 262 kts | 40° |
| 2026-05-04 19:28 | 33.91525 | 35.50006 | 18411 ft | 291 kts | 38° |
| 2026-05-04 19:28 | 33.93169 | 35.51640 | 18949 ft | 321 kts | 33° |
| 2026-05-04 19:28 | 33.95099 | 35.53215 | 19479 ft | 350 kts | 28° |
| 2026-05-04 19:29 | 33.97306 | 35.54725 | 20007 ft | 379 kts | 24° |
| 2026-05-04 19:29 | 33.99728 | 35.56166 | 20525 ft | 407 kts | 22° |
| 2026-05-04 19:29 | 34.02397 | 35.57596 | 21046 ft | 432 kts | 20° |
| 2026-05-04 19:29 | 34.05252 | 35.59014 | 21563 ft | 453 kts | 19° |
| 2026-05-04 19:30 | 34.08228 | 35.60417 | 22109 ft | 457 kts | 18° |
| 2026-05-04 19:30 | 34.11151 | 35.61753 | 22713 ft | 439 kts | 17° |
| 2026-05-04 19:30 | 34.13940 | 35.63005 | 23325 ft | 419 kts | 17° |
| 2026-05-04 19:30 | 34.16610 | 35.64181 | 23933 ft | 413 kts | 17° |
| 2026-05-04 19:31 | 34.19355 | 35.65372 | 24566 ft | 415 kts | 16° |
| 2026-05-04 19:31 | 34.22104 | 35.66553 | 25132 ft | 425 kts | 16° |
| 2026-05-04 19:31 | 34.24933 | 35.67764 | 25651 ft | 436 kts | 16° |
| 2026-05-04 19:31 | 34.27808 | 35.69067 | 26160 ft | 446 kts | 20° |
| 2026-05-04 19:32 | 34.30477 | 35.71039 | 26659 ft | 456 kts | 39° |
| 2026-05-04 19:32 | 34.32424 | 35.74020 | 27159 ft | 462 kts | 60° |
| 2026-05-04 19:32 | 34.33397 | 35.77709 | 27686 ft | 463 kts | 81° |
| 2026-05-04 19:32 | 34.33532 | 35.81590 | 28298 ft | 463 kts | 92° |
| 2026-05-04 19:33 | 34.33213 | 35.85466 | 28939 ft | 464 kts | 98° |
| 2026-05-04 19:33 | 34.32665 | 35.89326 | 29584 ft | 466 kts | 101° |
| 2026-05-04 19:33 | 34.32025 | 35.93172 | 30217 ft | 469 kts | 102° |
| 2026-05-04 19:33 | 34.31366 | 35.97062 | 30847 ft | 472 kts | 102° |
| 2026-05-04 19:34 | 34.30738 | 36.00972 | 31475 ft | 474 kts | 101° |
| 2026-05-04 19:34 | 34.30164 | 36.04900 | 32100 ft | 475 kts | 100° |
| 2026-05-04 19:34 | 34.29652 | 36.08852 | 32726 ft | 476 kts | 99° |
| 2026-05-04 19:34 | 34.29203 | 36.12822 | 33351 ft | 476 kts | 97° |
| 2026-05-04 19:35 | 34.28814 | 36.16787 | 33975 ft | 475 kts | 96° |
| 2026-05-04 19:35 | 34.28477 | 36.20755 | 34599 ft | 474 kts | 96° |
| 2026-05-04 19:35 | 34.28185 | 36.24718 | 35224 ft | 472 kts | 95° |
| 2026-05-04 19:35 | 34.27932 | 36.28620 | 35841 ft | 469 kts | 94° |
| 2026-05-04 19:36 | 34.27707 | 36.32538 | 36464 ft | 466 kts | 94° |
| 2026-05-04 19:36 | 34.27505 | 36.36436 | 37087 ft | 462 kts | 94° |
| 2026-05-04 19:36 | 34.27321 | 36.40297 | 37709 ft | 458 kts | 93° |
| 2026-05-04 19:36 | 34.27150 | 36.44128 | 38332 ft | 454 kts | 93° |
| 2026-05-04 19:37 | 34.26989 | 36.47916 | 38922 ft | 450 kts | 93° |
| 2026-05-04 19:37 | 34.26832 | 36.51718 | 39072 ft | 458 kts | 93° |
| 2026-05-04 19:37 | 34.26661 | 36.55602 | 39056 ft | 469 kts | 94° |
| 2026-05-04 19:38 | 34.26184 | 36.63636 | 39033 ft | 486 kts | 95° |
| 2026-05-04 19:38 | 34.25603 | 36.71856 | 39029 ft | 493 kts | 95° |
| 2026-05-04 19:39 | 34.24980 | 36.80110 | 39010 ft | 492 kts | 95° |
| 2026-05-04 19:39 | 34.24349 | 36.88338 | 38915 ft | 496 kts | 99° |
| 2026-05-04 19:40 | 34.23688 | 36.96753 | 38935 ft | 511 kts | 99° |
| 2026-05-04 19:40 | 34.22993 | 37.05403 | 38942 ft | 530 kts | 99° |
| 2026-05-04 19:41 | 34.22271 | 37.14398 | 38945 ft | 544 kts | 99° |
| 2026-05-04 19:41 | 34.21520 | 37.23555 | 38942 ft | 547 kts | 101° |
| 2026-05-04 19:41 | 34.20730 | 37.28018 | 38946 ft | 539 kts | 112° |
| 2026-05-04 19:42 | 34.19424 | 37.32222 | 38953 ft | 531 kts | 120° |
| 2026-05-04 19:42 | 34.15973 | 37.40039 | 38956 ft | 524 kts | 128° |
| 2026-05-04 19:43 | 34.12062 | 37.47365 | 38951 ft | 523 kts | 131° |
| 2026-05-04 19:43 | 34.07955 | 37.54630 | 38936 ft | 523 kts | 131° |
| 2026-05-04 19:44 | 34.03841 | 37.61871 | 38933 ft | 523 kts | 131° |
| 2026-05-04 19:44 | 33.99765 | 37.69138 | 38932 ft | 523 kts | 131° |
| 2026-05-04 19:45 | 33.95759 | 37.76399 | 38931 ft | 524 kts | 130° |
| 2026-05-04 19:45 | 33.91734 | 37.83797 | 38928 ft | 525 kts | 130° |
| 2026-05-04 19:46 | 33.87793 | 37.91119 | 38927 ft | 525 kts | 130° |
| 2026-05-04 19:46 | 33.83844 | 37.98512 | 38925 ft | 525 kts | 129° |
| 2026-05-04 19:47 | 33.79906 | 38.05914 | 38922 ft | 525 kts | 129° |
| 2026-05-04 19:47 | 33.75969 | 38.13332 | 38924 ft | 525 kts | 129° |
| 2026-05-04 19:48 | 33.72037 | 38.20741 | 38916 ft | 526 kts | 129° |
| 2026-05-04 19:48 | 33.68093 | 38.28167 | 38909 ft | 527 kts | 129° |
| 2026-05-04 19:49 | 33.64809 | 38.34348 | 38910 ft | 528 kts | 129° |
| 2026-05-04 19:49 | 33.60855 | 38.41780 | 38911 ft | 528 kts | 129° |
| 2026-05-04 19:50 | 33.56902 | 38.49198 | 38909 ft | 528 kts | 129° |
| 2026-05-04 19:50 | 33.52936 | 38.56626 | 38908 ft | 529 kts | 129° |
| 2026-05-04 19:51 | 33.49043 | 38.64116 | 38909 ft | 534 kts | 124° |
| 2026-05-04 19:51 | 33.47646 | 38.68213 | 38915 ft | 543 kts | 112° |
| 2026-05-04 19:51 | 33.46775 | 38.72642 | 38920 ft | 548 kts | 103° |
| 2026-05-04 19:52 | 33.46146 | 38.81773 | 38920 ft | 553 kts | 93° |
| 2026-05-04 19:52 | 33.46327 | 38.90999 | 38918 ft | 554 kts | 89° |
| 2026-05-04 19:53 | 33.46745 | 39.00213 | 38914 ft | 554 kts | 90° |
| 2026-05-04 19:53 | 33.46844 | 39.09430 | 38916 ft | 553 kts | 92° |
| 2026-05-04 19:54 | 33.46729 | 39.18648 | 38909 ft | 553 kts | 94° |
| 2026-05-04 19:54 | 33.46525 | 39.27846 | 38953 ft | 553 kts | 95° |
| 2026-05-04 19:55 | 33.46284 | 39.37077 | 39010 ft | 555 kts | 95° |
| 2026-05-04 19:55 | 33.46028 | 39.46321 | 39014 ft | 557 kts | 95° |
| 2026-05-04 19:56 | 33.45768 | 39.55595 | 39013 ft | 557 kts | 95° |
| 2026-05-04 19:56 | 33.45509 | 39.64853 | 39013 ft | 557 kts | 95° |
| 2026-05-04 19:57 | 33.45251 | 39.74140 | 39012 ft | 557 kts | 95° |
| 2026-05-04 19:57 | 33.44994 | 39.83336 | 39012 ft | 557 kts | 95° |
| 2026-05-04 19:58 | 33.44733 | 39.92610 | 39011 ft | 557 kts | 95° |
| 2026-05-04 19:58 | 33.44469 | 40.01878 | 39011 ft | 557 kts | 95° |
| 2026-05-04 19:59 | 33.44200 | 40.11138 | 39010 ft | 556 kts | 95° |
| 2026-05-04 19:59 | 33.43927 | 40.20402 | 39010 ft | 556 kts | 96° |
| 2026-05-04 20:00 | 33.43647 | 40.29653 | 39010 ft | 556 kts | 96° |
| 2026-05-04 20:00 | 33.43361 | 40.38924 | 39009 ft | 556 kts | 96° |
| 2026-05-04 20:01 | 33.43070 | 40.48171 | 39009 ft | 556 kts | 96° |
| 2026-05-04 20:01 | 33.42772 | 40.57416 | 39009 ft | 556 kts | 96° |
| 2026-05-04 20:02 | 33.42469 | 40.66593 | 39008 ft | 556 kts | 96° |
| 2026-05-04 20:02 | 33.42158 | 40.75842 | 39008 ft | 555 kts | 96° |
| 2026-05-04 20:03 | 33.41840 | 40.85073 | 39008 ft | 555 kts | 96° |
| 2026-05-04 20:03 | 33.41515 | 40.94312 | 39008 ft | 555 kts | 96° |
| 2026-05-04 20:04 | 33.41183 | 41.03552 | 39006 ft | 555 kts | 96° |
| 2026-05-04 20:04 | 33.40844 | 41.12775 | 39000 ft | 554 kts | 96° |
| 2026-05-04 20:05 | 33.40500 | 41.21985 | 39000 ft | 553 kts | 96° |
| 2026-05-04 20:05 | 33.40148 | 41.31203 | 38998 ft | 553 kts | 96° |
| 2026-05-04 20:06 | 33.39793 | 41.40328 | 38997 ft | 552 kts | 96° |
| 2026-05-04 20:06 | 33.39427 | 41.49525 | 38997 ft | 552 kts | 96° |
| 2026-05-04 20:07 | 33.39055 | 41.58707 | 38997 ft | 552 kts | 96° |
| 2026-05-04 20:07 | 33.38675 | 41.67879 | 38997 ft | 552 kts | 96° |
| 2026-05-04 20:08 | 33.37867 | 41.76937 | 38998 ft | 542 kts | 110° |
| 2026-05-04 20:08 | 33.36566 | 41.81141 | 39007 ft | 532 kts | 121° |
| 2026-05-04 20:08 | 33.34827 | 41.85004 | 39009 ft | 525 kts | 128° |
| 2026-05-04 20:09 | 33.30671 | 41.92055 | 39009 ft | 518 kts | 136° |
| 2026-05-04 20:09 | 33.26126 | 41.98705 | 38988 ft | 515 kts | 139° |
| 2026-05-04 20:10 | 33.21519 | 42.05261 | 38969 ft | 514 kts | 139° |
| 2026-05-04 20:10 | 33.16971 | 42.11871 | 38967 ft | 515 kts | 138° |
| 2026-05-04 20:11 | 33.12508 | 42.18600 | 38909 ft | 518 kts | 137° |
| 2026-05-04 20:11 | 33.10300 | 42.22018 | 38694 ft | 523 kts | 136° |
| 2026-05-04 20:11 | 33.08098 | 42.25485 | 38389 ft | 525 kts | 136° |
| 2026-05-04 20:11 | 33.05926 | 42.28970 | 38038 ft | 527 kts | 135° |
| 2026-05-04 20:12 | 33.03870 | 42.32651 | 37651 ft | 538 kts | 127° |
| 2026-05-04 20:12 | 33.02396 | 42.36815 | 37195 ft | 551 kts | 114° |
| 2026-05-04 20:12 | 33.01489 | 42.41226 | 36728 ft | 558 kts | 106° |
| 2026-05-04 20:12 | 33.00952 | 42.45811 | 36246 ft | 561 kts | 101° |
| 2026-05-04 20:13 | 33.00667 | 42.50459 | 35764 ft | 563 kts | 97° |
| 2026-05-04 20:13 | 33.00542 | 42.55121 | 35280 ft | 564 kts | 95° |
| 2026-05-04 20:13 | 33.00508 | 42.59791 | 34767 ft | 565 kts | 94° |
| 2026-05-04 20:13 | 33.00521 | 42.64492 | 34166 ft | 566 kts | 94° |
| 2026-05-04 20:14 | 33.00550 | 42.69186 | 33547 ft | 567 kts | 94° |
| 2026-05-04 20:14 | 33.00576 | 42.73852 | 32927 ft | 567 kts | 94° |
| 2026-05-04 20:14 | 33.00587 | 42.78585 | 32258 ft | 567 kts | 94° |
| 2026-05-04 20:14 | 33.00576 | 42.83283 | 31527 ft | 568 kts | 95° |
| 2026-05-04 20:15 | 33.00540 | 42.87992 | 30780 ft | 568 kts | 95° |
| 2026-05-04 20:15 | 33.00477 | 42.92693 | 30030 ft | 567 kts | 96° |
| 2026-05-04 20:15 | 33.00390 | 42.97333 | 29289 ft | 567 kts | 96° |
| 2026-05-04 20:15 | 33.00278 | 43.02026 | 28540 ft | 567 kts | 96° |
| 2026-05-04 20:16 | 33.00144 | 43.06765 | 27777 ft | 559 kts | 97° |
| 2026-05-04 20:16 | 33.00002 | 43.11331 | 26976 ft | 543 kts | 97° |
| 2026-05-04 20:16 | 32.99853 | 43.15694 | 26169 ft | 530 kts | 97° |
| 2026-05-04 20:16 | 32.99691 | 43.20052 | 25340 ft | 519 kts | 98° |
| 2026-05-04 20:17 | 32.99520 | 43.24299 | 24516 ft | 510 kts | 98° |
| 2026-05-04 20:17 | 32.99337 | 43.28491 | 23665 ft | 497 kts | 96° |
| 2026-05-04 20:17 | 32.99140 | 43.32577 | 22838 ft | 492 kts | 96° |
| 2026-05-04 20:17 | 32.98945 | 43.36571 | 21982 ft | 469 kts | 96° |
| 2026-05-04 20:18 | 32.98761 | 43.40341 | 21145 ft | 444 kts | 97° |
| 2026-05-04 20:18 | 32.98588 | 43.43930 | 20316 ft | 424 kts | 96° |
| 2026-05-04 20:18 | 32.98563 | 43.47376 | 19491 ft | 409 kts | 91° |
| 2026-05-04 20:18 | 32.98703 | 43.50700 | 18668 ft | 396 kts | 89° |
| 2026-05-04 20:19 | 32.98774 | 43.51804 | 18389 ft | 391 kts | 86° |
| 2026-05-04 20:19 | 32.98887 | 43.53364 | 18030 ft | 385 kts | 85° |
| 2026-05-04 20:19 | 32.99154 | 43.56401 | 17919 ft | 351 kts | 84° |
| 2026-05-04 20:19 | 32.99434 | 43.59204 | 17933 ft | 338 kts | 83° |
| 2026-05-04 20:20 | 32.99736 | 43.62075 | 17776 ft | 364 kts | 83° |
| 2026-05-04 20:20 | 33.00068 | 43.65167 | 17444 ft | 398 kts | 83° |
| 2026-05-04 20:20 | 33.00430 | 43.68524 | 17079 ft | 415 kts | 83° |
| 2026-05-04 20:20 | 33.00794 | 43.71912 | 16705 ft | 407 kts | 83° |
| 2026-05-04 20:21 | 33.01150 | 43.75235 | 16327 ft | 400 kts | 83° |
| 2026-05-04 20:21 | 33.01500 | 43.78513 | 15951 ft | 397 kts | 83° |
| 2026-05-04 20:21 | 33.02190 | 43.85052 | 15007 ft | 392 kts | 83° |
| 2026-05-04 20:22 | 33.02523 | 43.88238 | 14505 ft | 385 kts | 83° |
| 2026-05-04 20:22 | 33.02851 | 43.91389 | 14006 ft | 383 kts | 83° |
| 2026-05-04 20:22 | 33.03175 | 43.94532 | 13507 ft | 382 kts | 83° |
| 2026-05-04 20:22 | 33.03494 | 43.97627 | 13011 ft | 377 kts | 83° |
| 2026-05-04 20:23 | 33.03809 | 44.00700 | 12511 ft | 372 kts | 83° |
| 2026-05-04 20:23 | 33.04120 | 44.03746 | 12010 ft | 368 kts | 83° |
| 2026-05-04 20:23 | 33.04427 | 44.06757 | 11509 ft | 363 kts | 83° |
| 2026-05-04 20:23 | 33.04729 | 44.09731 | 11008 ft | 359 kts | 83° |
| 2026-05-04 20:24 | 33.05027 | 44.12673 | 10503 ft | 353 kts | 83° |
| 2026-05-04 20:24 | 33.05311 | 44.15478 | 9982 ft | 332 kts | 83° |
| 2026-05-04 20:24 | 33.05543 | 44.18096 | 9481 ft | 302 kts | 77° |
| 2026-05-04 20:24 | 33.05754 | 44.20455 | 8971 ft | 272 kts | 76° |
| 2026-05-04 20:25 | 33.05960 | 44.22608 | 8463 ft | 252 kts | 76° |
| 2026-05-04 20:25 | 33.06166 | 44.24627 | 7962 ft | 239 kts | 75° |
| 2026-05-04 20:25 | 33.06366 | 44.26524 | 7464 ft | 224 kts | 75° |
| 2026-05-04 20:25 | 33.06567 | 44.28367 | 6887 ft | 231 kts | 76° |
| 2026-05-04 20:26 | 33.06791 | 44.30338 | 6270 ft | 243 kts | 77° |
| 2026-05-04 20:26 | 33.07000 | 44.32308 | 5655 ft | 236 kts | 78° |
| 2026-05-04 20:26 | 33.07189 | 44.34207 | 5036 ft | 231 kts | 79° |
| 2026-05-04 20:26 | 33.07469 | 44.36091 | 4390 ft | 224 kts | 69° |
| 2026-05-04 20:27 | 33.08317 | 44.37540 | 3749 ft | 209 kts | 29° |
| 2026-05-04 20:27 | 33.09606 | 44.37854 | 3592 ft | 181 kts | 344° |
| 2026-05-04 20:27 | 33.10592 | 44.37091 | 3695 ft | 173 kts | 310° |
| 2026-05-04 20:27 | 33.11286 | 44.35884 | 3873 ft | 171 kts | 303° |
| 2026-05-04 20:28 | 33.11999 | 44.34789 | 3954 ft | 181 kts | 309° |
| 2026-05-04 20:28 | 33.12926 | 44.33652 | 3289 ft | 191 kts | 315° |
| 2026-05-04 20:28 | 33.13969 | 44.32723 | 2615 ft | 182 kts | 323° |
| 2026-05-04 20:28 | 33.15043 | 44.32021 | 2085 ft | 165 kts | 333° |
| 2026-05-04 20:29 | 33.16038 | 44.31508 | 2018 ft | 151 kts | 335° |
| 2026-05-04 20:29 | 33.16966 | 44.30948 | 1856 ft | 149 kts | 330° |
| 2026-05-04 20:29 | 33.17854 | 44.30362 | 1794 ft | 145 kts | 327° |
| 2026-05-04 20:29 | 33.18732 | 44.29746 | 1601 ft | 148 kts | 328° |
| 2026-05-04 20:30 | 33.19622 | 44.29147 | 1470 ft | 147 kts | 328° |
| 2026-05-04 20:30 | 33.20508 | 44.28535 | 1205 ft | 150 kts | 328° |
| 2026-05-04 20:30 | 33.21405 | 44.27911 | 914 ft | 149 kts | 327° |
| 2026-05-04 20:30 | 33.22277 | 44.27317 | 764 ft | 140 kts | 328° |
| 2026-05-04 20:31 | 33.23160 | 44.26707 | 649 ft | 154 kts | 327° |
| 2026-05-04 20:31 | 33.24047 | 44.26091 | 404 ft | 139 kts | 329° |
| 2026-05-04 20:31 | 33.24870 | 44.25531 | 253 ft | 134 kts | 329° |
| 2026-05-04 20:31 | 33.25626 | 44.25024 | 141 ft | 112 kts | 328° |
| 2026-05-04 20:32 | 33.26168 | 44.24643 | 129 ft | 52 kts | 328° |
| 2026-05-04 20:32 | 33.26433 | 44.24458 | 129 ft | 44 kts | 328° |
| 2026-05-04 20:32 | 33.26677 | 44.24276 | 129 ft | 39 kts | 322° |
| 2026-05-04 20:32 | 33.26834 | 44.24027 | 129 ft | 37 kts | 298° |
| 2026-05-04 20:33 | 33.26989 | 44.23822 | 129 ft | 30 kts | 329° |
| 2026-05-04 20:33 | 33.27167 | 44.23684 | 129 ft | 31 kts | 324° |
| 2026-05-04 20:33 | 33.27345 | 44.23570 | 129 ft | 21 kts | 334° |
| 2026-05-04 20:33 | 33.27382 | 44.23530 | 129 ft | 2 kts | 287° |
| 2026-05-04 20:34 | 33.27380 | 44.23518 | 129 ft | 4 kts | 257° |
| 2026-05-04 20:34 | 33.27345 | 44.23451 | 129 ft | 17 kts | 241° |
| 2026-05-04 20:34 | 33.27223 | 44.23194 | 129 ft | 27 kts | 241° |
| 2026-05-04 20:34 | 33.27155 | 44.23057 | 129 ft | 16 kts | 240° |
| 2026-05-04 20:35 | 33.27130 | 44.23031 | 129 ft | 3 kts | 193° |
| 2026-05-04 20:35 | 33.27103 | 44.23037 | 129 ft | 6 kts | 168° |
| 2026-05-04 20:35 | 33.27053 | 44.23059 | 129 ft | 7 kts | 159° |
| 2026-05-04 20:35 | 33.27040 | 44.23064 | 129 ft | 0 kts | 159° |